Bei Facebook empfehlenBei Twitter postenGoogle plusPinterest

Das Wetter im Erzgebirge am 21.07.2017

Wetter und Klima am 21.07.2017 Holzhau im Erzgebirge (630m ü.NN)
Letzte gemessene Temperatur und Uhrzeit der Messung23:45:00 Uhr14.50 °C
Temperatur (Maximum / Höchstwert) und Uhrzeit der Messung17:30:00 Uhr27.40 °C
Temperatur (Minimum / Tiefstwert) und Uhrzeit der Messung04:45:0012.50 °C
Errechneter Absolutwert der Temperaturschwankungen zwischen Tmin und Tmax des Tages14.90 K
Errechnete Tagesmitteltemperatur19.55417 °C
Gesamt - Niederschlag des Tages (in flüssiger Form)0.00 Liter / m²
Luftdruck (Maximum / Höchstwert) und Zeitpunkt der Messung14:30:00 Uhr1013.00 hPa
Luftdruck (Minimum / Tiefstwert) und Zeitpunkt der Messung00:00:00 Uhr1010.90 hPa
Errechneter Absolutwert der Luftdruckschwankungen des Tages2.10 hPa
Höchste gemessene Windgeschwindigkeit und Uhrzeit der Messung20:00:00 Uhr21.96 km/h
Errechnete Windhäufigkeit in Relation zu den Messwerten des Tages6.25000 %
Niedrigste Windkühle (Windchill) und Zeitpunkt der Messung04:45:00 Uhr12.50 °C
Taupunkt (Maximum / Höchstwert) und Uhrzeit der Messung10:15:00 Uhr18.10 °C
Taupunkt (Minimum / Tiefstwert) und Uhrzeit der Messung04:45:0011.40 °C
Anzahl der automatisch eingelesenen Messwerte 96

Detaillierte Wetter- und Klima- Messwerte für den 21.07.2017 in Holzhau im Erzgebirge (630m ü.NN)
ZeitTemperaturLuftdruckRel. LuftfeuchteWindWindrichtungWindchillTaupunktNiederschlag l/m²
23:45:0014.50 °C1011.40 hPa82.00 %11.50 °C 
23:30:0014.80 °C1011.60 hPa82.00 %11.80 °C 
23:15:0015.00 °C1011.60 hPa81.00 %11.80 °C 
23:00:0015.30 °C1011.60 hPa80.00 %11.90 °C 
22:45:0015.60 °C1011.90 hPa80.00 %11.52 km/hO15.60 °C12.20 °C 
22:30:0015.90 °C1011.90 hPa79.00 %12.30 °C 
22:15:0016.20 °C1011.90 hPa78.00 %12.40 °C 
22:00:0016.60 °C1012.10 hPa76.00 %12.40 °C 
21:45:0017.20 °C1012.00 hPa75.00 %12.70 °C 
21:30:0017.70 °C1012.00 hPa73.00 %12.80 °C 
21:15:0018.40 °C1011.90 hPa71.00 %13.10 °C 
21:00:0019.30 °C1011.80 hPa68.00 %13.20 °C 
20:45:0020.40 °C1011.70 hPa64.00 %13.40 °C 
20:30:0021.80 °C1011.50 hPa60.00 %13.70 °C 
20:15:0022.80 °C1011.50 hPa56.00 %13.60 °C 
20:00:0023.80 °C1011.50 hPa53.00 %21.96 km/hSO25.30 °C13.60 °C 
19:45:0024.80 °C1011.40 hPa52.00 %14.30 °C 
19:30:0025.90 °C1011.50 hPa49.00 %12.96 km/hSSW25.90 °C14.40 °C 
19:15:0026.60 °C1011.50 hPa49.00 %15.00 °C 
19:00:0026.60 °C1011.60 hPa48.00 %14.70 °C 
18:45:0026.70 °C1011.70 hPa46.00 %14.10 °C 
18:30:0026.80 °C1011.70 hPa45.00 %13.90 °C 
18:15:0027.20 °C1012.00 hPa45.00 %14.20 °C 
18:00:0027.00 °C1012.00 hPa47.00 %14.70 °C 
17:45:0027.10 °C1012.10 hPa48.00 %15.10 °C 
17:30:0027.40 °C1012.20 hPa46.00 %14.80 °C 
17:15:0027.40 °C1012.40 hPa46.00 %14.80 °C 
17:00:0027.20 °C1012.30 hPa46.00 %14.60 °C 
16:45:0026.80 °C1012.40 hPa47.00 %14.50 °C 
16:30:0026.40 °C1012.40 hPa47.00 %14.20 °C 
16:15:0027.10 °C1012.50 hPa48.00 %21.96 km/hONO29.10 °C15.10 °C 
16:00:0027.20 °C1012.50 hPa46.00 %14.60 °C 
15:45:0026.60 °C1012.70 hPa48.00 %14.70 °C 
15:30:0026.30 °C1012.80 hPa48.00 %14.40 °C 
15:15:0025.60 °C1012.90 hPa51.00 %14.70 °C 
15:00:0025.10 °C1012.80 hPa53.00 %3.96 km/hWSW25.10 °C14.80 °C 
14:45:0024.90 °C1012.80 hPa53.00 %14.70 °C 
14:30:0025.20 °C1013.00 hPa53.00 %14.90 °C 
14:15:0026.30 °C1013.00 hPa51.00 %15.40 °C 
14:00:0026.30 °C1012.90 hPa54.00 %16.30 °C 
13:45:0025.60 °C1012.90 hPa56.00 %16.20 °C 
13:30:0026.10 °C1012.70 hPa52.00 %15.50 °C 
13:15:0026.20 °C1012.80 hPa56.00 %16.70 °C 
13:00:0025.40 °C1012.70 hPa55.00 %15.70 °C 
12:45:0025.40 °C1012.90 hPa60.00 %17.10 °C 
12:30:0025.30 °C1012.90 hPa59.00 %6.48 km/hW25.30 °C16.70 °C 
12:15:0024.90 °C1012.60 hPa62.00 %17.10 °C 
12:00:0024.60 °C1012.90 hPa65.00 %17.60 °C 
11:45:0023.70 °C1012.90 hPa68.00 %17.40 °C 
11:30:0023.90 °C1012.90 hPa65.00 %16.90 °C 
11:15:0023.80 °C1013.00 hPa68.00 %17.50 °C 
11:00:0023.20 °C1012.90 hPa72.00 %17.90 °C 
10:45:0022.70 °C1012.90 hPa73.00 %17.60 °C 
10:30:0022.10 °C1012.70 hPa76.00 %17.70 °C 
10:15:0021.50 °C1012.60 hPa81.00 %18.10 °C 
10:00:0020.10 °C1012.50 hPa84.00 %17.30 °C 
09:45:0019.70 °C1012.60 hPa85.00 %17.10 °C 
09:30:0019.20 °C1012.40 hPa88.00 %17.20 °C 
09:15:0018.80 °C1012.40 hPa90.00 %17.10 °C 
09:00:0017.90 °C1012.50 hPa93.00 %16.80 °C 
08:45:0017.10 °C1012.30 hPa94.00 %16.10 °C 
08:30:0016.40 °C1012.30 hPa95.00 %15.60 °C 
08:15:0016.10 °C1012.30 hPa95.00 %15.30 °C 
08:00:0015.90 °C1012.00 hPa95.00 %15.10 °C 
07:45:0015.90 °C1012.00 hPa95.00 %15.10 °C 
07:30:0014.90 °C1012.00 hPa95.00 %14.10 °C 
07:15:0014.60 °C1012.00 hPa95.00 %13.80 °C 
07:00:0014.30 °C1011.70 hPa95.00 %13.50 °C 
06:45:0013.90 °C1011.70 hPa95.00 %13.10 °C 
06:30:0013.40 °C1011.70 hPa95.00 %12.60 °C 
06:15:0013.10 °C1011.80 hPa95.00 %12.30 °C 
06:00:0012.90 °C1011.60 hPa94.00 %12.00 °C 
05:45:0012.90 °C1011.60 hPa94.00 %12.00 °C 
05:30:0013.10 °C1011.40 hPa94.00 %12.20 °C 
05:15:0012.90 °C1011.40 hPa94.00 %12.00 °C 
05:00:0012.60 °C1011.30 hPa94.00 %11.70 °C 
04:45:0012.50 °C1011.30 hPa93.00 %11.40 °C 
04:30:0012.60 °C1011.10 hPa93.00 %11.50 °C 
04:15:0012.70 °C1011.20 hPa93.00 %11.60 °C 
04:00:0012.90 °C1011.30 hPa93.00 %11.80 °C 
03:45:0013.10 °C1011.40 hPa93.00 %12.00 °C 
03:30:0013.10 °C1011.40 hPa93.00 %12.00 °C 
03:15:0013.30 °C1011.40 hPa93.00 %12.20 °C 
03:00:0013.30 °C1011.40 hPa93.00 %12.20 °C 
02:45:0013.20 °C1011.60 hPa93.00 %12.10 °C 
02:30:0013.30 °C1011.60 hPa93.00 %12.20 °C 
02:15:0013.40 °C1011.50 hPa93.00 %12.30 °C 
02:00:0013.40 °C1011.40 hPa93.00 %12.30 °C 
01:45:0013.50 °C1011.30 hPa93.00 %12.40 °C 
01:30:0013.60 °C1011.30 hPa93.00 %12.50 °C 
01:15:0013.40 °C1011.30 hPa92.00 %12.10 °C 
01:00:0013.60 °C1011.10 hPa92.00 %12.30 °C 
00:45:0013.90 °C1011.20 hPa92.00 %12.60 °C 
00:30:0014.10 °C1011.10 hPa92.00 %12.80 °C 
00:15:0014.10 °C1011.10 hPa91.00 %12.70 °C 
00:00:0014.30 °C1010.90 hPa91.00 %12.90 °C 

Permanenter Link zu dieser Seite: Wetter im Erzgebirge am 21.07.2017
Performance-Info: Die Erstellung der Seite / Statistik(en) / Tabelle(n) erforderte 5 Datenbankserver-Abfrage(n) und dauerte 101 Millisekunden. (Dieser Messwert ist von der Gesamt-Auslastung des Servers abhängig.)
Erzgebirge - Wetter | Erzgebirge - Wetter (Mobilgeräte) | Komplette Klimadatenbank